メインページ
METAR-TAF:

METAR-TAF

空港 :

Al Bahah, サウジアラビア

緯度: 20-18N, 経度: 041-38E, 海抜: 1652m

現時点の気象観測

当レポートは39分前の11:00(UTC)に作成
の風 22kt
気温 33°C
湿度 17%
気圧 1020 hPa
視程10km以上
1,500メートル以下は雲なし、積乱雲なし

METAR: OEBA 241100Z 09022KT CAVOK 33/05 Q1020 NOSIG

時間: 14:39 (11:39 UTC)

予報

当レポートは12時間39分前の23:00(UTC)に作成
予報は24日の 00時(UTC)から 25日の 06時(UTC)まで有効
西の風 6kt
視程: 7000m
高度3000ftの雲はほとんどない
24日の 06時(UTC)から 24日の 08時(UTC)まで徐々に
の風 8kt、最大18ktの突風を伴う
24日の 10時(UTC)から 24日の 16時(UTC)まで一時的に
視程: 6000m
高度2500ftの雲はほとんどない, 積乱雲.
高度3000ftの雲は散在している

TAF: OEBA 232300Z 2400/2506 26006KT 7000 FEW030 BECMG 2406/2408 10008G18KT TEMPO 2410/2416 6000 FEW025CB SCT030

4,000以上の空港の気象観測と天気予報(METAR報とTAF報)

利用可能な観測所は地図上に黄色い丸と赤い丸で示す。

丸の上にカーソルを重ねると観測所名を参照できる。

次にクリックすると気象観測と天気予報を参照できる。

マップの切り替え:黒色「×」印の緑ボタンをクリックして拡大、「-」印の緑ボタンをクリックして縮小、緑色の三角印をクリックして隣りの地図に切り替え


METAR-TAF: